the time You need

Granfondo dei Templari

San Quirino, Pordenone   Italy

domenica 03 agosto 2014

Percorsi

LUNGO - 144.0 Km

 

CORTO - 107.0 Km

Servizi

Official TimingPunti KS Ranking

Chip

Personal Chip Daily Chip

Circuiti

Alpe Adria Tour

CLASSIFICA

LUNGO - 144.0 Km

Pos Atleta Sesso Cat PosC Team Tempo Media RTime
95 CERIOLI THOMAS M SEN 17 TEAM FRIULI SANVITESE 05:46:34.41 24,93 05:46:21.21
94 PIAZZI MERI F W2 3 GIANLUCA FAENZA TEAM 05:46:34.01 24,93 05:46:33.33
93 BIANCHIN MAURO M GEN 17 GS ESERCITO 05:43:19.75 25,17 05:43:07.05
92 COMPARIN CRISTIAN M SEN 16 ASD CHIARCOSSO HELP HAITI 05:40:47.25 25,35 05:40:39.15
91 ROSSITTO GIANLUCA M VET 35 CICLOTURISTICA PORTOGRUARESE 05:40:32.00 25,37 05:40:14.14
90 MIO FABRIZIO M VET 34 TEAM PROFESSIONAL BIKE 05:27:21.84 26,39 05:27:08.14
89 NEGRO MAURO M VET 33 TEAM ISONZO AMATORI ASD 05:27:17.34 26,40 05:27:01.01
88 GRIGOLETTO DANIELE M VET 32 ASD SC I FALCHI DI TUXON 05:27:16.46 26,40 05:27:04.04
87 ROSIN ROBERTO M SGB 3 TEAM ISONZO AMATORI ASD 05:27:09.34 26,41 05:26:56.34
86 MAIER SILVIO M SGA 6 CARNIA BIKE 05:27:08.46 26,41 05:26:54.54
85 SIMONITTI ALESSANDRO M GEN 16 ASD CHIARCOSSO HELP HAITI 05:27:08.46 26,41 05:26:58.16
84 BRVAR JOZE M GEN 15 ED TURBO M 05:27:05.42 26,42 05:27:02.22
83 RIGHES DINO M GEN 14 GIRELLI CICLI DALLA ROSA MOBILI 05:25:44.41 26,52 05:25:31.21
82 CASETTA MIRCO M SEN 15 TEAM SALVADOR RDZ 05:21:19.07 26,89 05:21:03.03
81 BEANI SIMONE M JUN 13 SGANCIO RAPIDO 05:21:19.06 26,89 05:21:01.01
80 SALOMON FRANCO M VET 31 TV BIKE TEAM 05:21:13.19 26,90 05:20:56.56
79 BUSIGNANI GIULIANO M SGB 2 RUBICONE CYCLING 05:21:12.81 26,90 05:21:05.51
78 FONTANEL ENRICO M JUN 12 CICLOTURISTICA PORTOGRUARESE 05:11:54.18 27,70 05:11:44.44
77 COLOMBO MAURO M SGB 1 UNIONE SPORTIVA SANGIORGESE 05:11:53.03 27,70 05:11:49.49
76 PES VALTER M SGA 5 TEAM SALVADOR RDZ 05:11:52.78 27,70 05:11:35.68
75 LADERCHI PIERGIOVANNI M SGA 3 PEDALE SANGIOVANNESE 05:11:52.28 27,70 05:11:48.48
74 RONCATO BRUNO M SGA 4 TV BIKE TEAM 05:11:52.28 27,70 05:11:48.08
73 CUSAN MARCO M GEN 13 CICLOTURISTICA PORTOGRUARESE 05:11:51.66 27,71 05:11:40.46
72 SQUAZZINI GIAMPIERO M VET 30 PRAMAGGIORE 05:07:45.26 28,07 05:07:31.31
71 PRADAL FABRIZIO M GEN 12 PRAMAGGIORE 05:07:45.15 28,07 05:07:30.30
70 MRDALI ALESSANDRO M VET 29 SC COTTUR ASD 05:07:44.76 28,08 05:07:39.36
69 DELLA MORA ROBERTO M VET 28 ASD CHIARCOSSO HELP HAITI 05:05:09.90 28,31 05:05:03.00
68 VANOLI ANDREA M VET 27 GIANLUCA FAENZA TEAM 05:05:08.71 28,32 05:05:06.21
67 FILIPPI ENRICO M GEN 11 ABS TEAM DANIELI FRIULI 05:05:08.51 28,32 05:05:00.21
66 SOLDAN MAURIZIO M GEN 10 EUROVELO CICLI 05:05:08.50 28,32 05:04:57.57
65 BASSO VANNY M VET 26 ASD SC I FALCHI DI TUXON 05:05:08.40 28,32 05:04:57.57
64 FISCHER BORIS M SEN 14 TEAM GREENS 05:02:34.74 28,56 05:02:26.26
63 OTER MITJA M SEN 13 BARBARIGA 05:01:55.39 28,62 05:01:40.19
62 STRAGLIOTTO PIERLUIGI M VET 25 CICLI MORBIATO 05:01:36.14 28,65 05:01:22.22
61 TOMMASINI STEFANO M VET 24 ASD CHIARCOSSO HELP HAITI 05:01:34.89 28,65 05:01:27.69
60 MAZZOTTI CARLO M JUN 11 LGL BIKE TEAM 05:01:33.99 28,65 05:01:27.09
59 VACCARONI DORINA F W2 2 MONTEPONI 05:01:33.24 28,65 05:01:30.30
58 VALENTI GUSTAVO M SEN 12 VIRTUS GIUDICARESE 05:01:33.24 28,65 05:01:26.26
57 ZANCHI MARCO M VET 23 BARBARIGA 05:01:33.24 28,65 05:01:23.23
56 MARZOCCHI MARCO M GEN 9 GIANLUCA FAENZA TEAM 05:01:31.74 28,66 05:01:31.04
55 KREBS BRIGITTE F W2 1 ASD GF CARINZIA 05:01:30.89 28,66 05:01:28.79
54 CHIAPPINI ALESSANDRO M VET 22 AVIS GLS 05:01:30.50 28,66 05:01:20.40
53 CESARETTI DANIELE M SGA 2 PEDALE RIMINESE 05:01:30.49 28,66 05:01:19.49
52 MANFE´ DARIO M SEN 11 MESCHIO 05:01:30.49 28,66 05:01:16.09
51 CROSATO DOMINGO MARINO M SEN 10 TEAM SALVADOR RDZ 05:00:07.48 28,79 05:00:01.28
50 ROMAN CLAUDIO M GEN 8 CELLINA BIKE 04:58:48.88 28,92 04:58:39.78
49 SAID GERARD M SEN 9 TEAM GREENS 04:58:46.23 28,92 04:58:30.30
48 POLETTI DANIELE M VET 21 VIRTUS GIUDICARESE 04:58:45.98 28,92 04:58:38.28
47 VALENTE CARLO M SEN 8 GS ESERCITO 04:57:35.72 29,03 04:57:23.72
46 PICORELLI DAVIDE MATTEO M JUN 10 LA SALA MACCHINE TEAM 04:54:24.11 29,35 04:54:13.13
45 FRISANCO LUCA M VET 20 GSA PENNE SPRINT 04:52:52.29 29,50 04:52:46.46
44 PACE LEONARDO M JUN 9 ENGINE & BIKE CANESIN 04:52:47.11 29,51 04:52:36.36
43 FURLAN MICHELE M VET 19 GRANFONDO PINARELLO 04:52:46.71 29,51 04:52:33.61
42 BENEDET ELISA F W1 1 TEAM RANA TAGLIARO 04:46:00.59 30,21 04:45:59.59
41 PAIS MARDEN LUCA M VET 18 TEAM 9 04:45:59.68 30,21 04:45:49.28
40 MARINI TOFFUL ALESSIO M VET 17 ASD FEDERCLUB TRIESTE SCAT 04:45:56.18 30,22 04:45:51.08
39 BROCCOLO RAFFAELE M VET 16 D.L.F. PORDENONE 04:45:47.93 30,23 04:45:35.13
38 ROLFF PAOLO M GEN 7 ENGINE & BIKE CANESIN 04:45:46.43 30,23 04:45:37.37
37 COMELLI MASSIMO M VET 15 TEAM ISONZO AMATORI ASD 04:45:45.93 30,24 04:45:34.73
36 ORLANDO CLAUDIO M SGA 1 PORTOBUFFOLE´ 04:45:45.46 30,24 04:45:41.41
35 DIAMANTE MATTEO M JUN 8 PEDALE SANGIOVANNESE 04:45:45.43 30,24 04:45:37.37
34 STASI ALFONSO M SEN 7 CARNIA BIKE 04:45:45.26 30,24 04:45:31.31
33 MOROCUTTI STEFANO M VET 14 PEDALE GEMONESE 04:45:45.15 30,24 04:45:32.32
32 BENEDETTI MAURIZIO M VET 13 TEAM SALVADOR RDZ 04:45:45.09 30,24 04:45:34.34
31 SILVESTRIN ROBERTO M GEN 6 BIKE TEAM 2 04:45:44.68 30,24 04:45:35.28
30 LAVINA MATTEO M JUN 7 TEAM SALVADOR RDZ 04:45:44.27 30,24 04:45:29.29
29 LUCCA MAURIZIO M VET 12 TV BIKE TEAM 04:45:44.26 30,24 04:45:41.41
28 BOIAGO GIANNI M GEN 5 TEAM SALVADOR RDZ 04:45:44.25 30,24 04:45:37.37
27 PICCININ MASSIMO M VET 11 GRANFONDO PINARELLO 04:45:43.86 30,24 04:45:26.76
26 CASSIN MARCELLO M VET 10 ASD PEDALE SANGIOVANNESE 04:45:43.59 30,24 04:45:37.37
25 FRANCHI GIORGIO M GEN 4 TEAM ROSSETTI 04:45:23.18 30,28 04:45:21.08
24 MINISINI RUGGERO M JUN 6 TEAM PONTONI 04:39:50.82 30,88 04:39:33.33
23 ZORZAN ILARIO M SEN 6 UC ASOLANA 04:39:40.66 30,89 04:39:25.66
22 SIGNOR MASSIMO M VET 9 TV BIKE TEAM 04:39:37.91 30,90 04:39:20.51
21 BARONI ALESSANDRO M VET 8 ASD PEDALE SANGIOVANNESE 04:39:36.05 30,90 04:39:27.27
20 VESCOVI MARCO M VET 7 PORTOBUFFOLE´ 04:39:35.91 30,90 04:39:24.91
19 CINTURRINO CARMELO M VET 6 FUN BIKE CUSSIG BIKE 04:39:35.90 30,90 04:39:28.60
18 CAMPORESE FRANCESCO M JUN 5 VELO CLUB 2 TORRI ROVIGO 04:39:35.44 30,90 04:39:32.14
17 DESSONI MARCO M JUN 4 CICLI SPEZZOTTO DREAM TEAM 04:39:09.41 30,95 04:39:05.11
16 ZARABARA CRISTIAN M VET 5 CARNIA BIKE 04:39:09.15 30,95 04:38:54.54
15 PICCO STEFANO M VET 4 UC CIVIDALESI 04:36:44.15 31,22 04:36:31.31
14 BORTOTTO FRANCESCO M SEN 5  ASD TEAM FRIULI SANVITESE 04:36:44.06 31,22 04:36:34.34
13 GIACOMETTI GABRIELE M VET 3 GIANLUCA FAENZA TEAM 04:36:43.59 31,22 04:36:43.43
12 VICARIO GIANPAOLO M SEN 4 CUSSIGH BIKE-FUN BIKE 04:36:43.39 31,22 04:36:30.30
11 FACCINI PAOLO M GEN 3 GRANFONDO PINARELLO 04:33:25.06 31,60 04:33:22.22
10 PRIMIG ARMIN M JUN 3 ASD GF CARINZIA 04:32:08.80 31,75 04:31:57.60
9 GRECO PAOLO NICOLA M GEN 2 GS SCAVEZZON SQUADRA CORSE 04:29:58.62 32,00 04:29:52.52
8 DI MATTEO MASSIMO M VET 2 GIANLUCA FAENZA TEAM 04:29:58.37 32,00 04:29:58.37
7 BUCHACHER JOHANNES M JUN 2 AMICI & BICI NADALI 04:28:20.86 32,20 04:28:16.76
6 LENARDUZZI GIULIANO M VET 1 ASD CHIARCOSSO HELP HAITI 04:26:14.11 32,45 04:26:07.07
5 PERTL GEBHARD M GEN 1 ASD GF CARINZIA 04:24:34.18 32,66 04:24:31.31
4 CIOT FABIO M SEN 3 TEAM PROFESSIONAL BIKE 04:24:33.85 32,66 04:24:27.55
3 ZARDELLO IVAN M SEN 2 SPEZZOTTO BIKE TEAM 04:24:33.84 32,66 04:24:29.29
2 DE STEFANO MARCO M SEN 1 ASD STALIS TEAM 04:24:33.60 32,66 04:24:25.10
1 MINUZZO PAOLO M JUN 1 LEGEND MICHE LGL 04:22:22.59 32,93 04:22:20.20
96 DRUDI MOSE´ M SEN 18 LGL BIKE TEAM 05:46:34.49 24,93 05:46:28.28
97 FRANCESCHINI IVAN M JUN 14 TEAM FRIULI SANVITESE 05:46:35.01 24,93 05:46:21.21
98 MACUGLIA ALESSIO M GEN 18 TEAM ISONZO AMATORI ASD 05:50:52.18 24,62 05:50:40.40
99 ZANETTI FABRIZIO M SGA 7 GRUPPO CICLISTICO CICLI CUK 05:54:17.69 24,39 05:54:10.59
100 CALABRETTA VITTORIO M VET 36 BANDIZIOL CYCLING TEAM 05:55:57.95 24,27 05:55:44.65
101 BARZAN DEVIS M VET 37 BPS CYCLING 05:57:28.29 24,17 05:57:12.12
102 FERIOLI SIMONA F W2 4 GIANLUCA FAENZA TEAM 05:58:21.53 24,11 05:58:20.20
103 FURIA EDOARDO M SEN 19 ROVEREDO IN PIANO 05:58:43.30 24,09 05:58:25.25
104 BOVOLENTA BARBARA F W2 5 CICLO DELTA 06:03:11.97 23,79 06:03:09.07
105 TOLOMEI DAVIDE M VET 38 CICLO DELTA 06:03:15.06 23,79 06:03:11.11
106 RACCANELLO TITO M JUN 15 ASD SPORTIVI DEL PONTE 06:03:23.47 23,78 06:03:15.15
107 PASCOLO MARCO M SEN 20 ASD CHIARCOSSO HELP HAITI 06:04:23.31 23,71 06:04:15.15
108 FURNO GIUSEPPE M JUN 16 FORUM BIKE 06:14:25.27 23,08 06:14:16.16
109 SCORPIO ENZO M GEN 19 GS ESERCITO 06:22:28.80 22,59 06:22:13.13
110 CAMPUS FRANCK M VET 39 CARNIA BIKE 06:22:29.30 22,59 06:22:15.10
111 TEDESCO FABRIZIO M GEN 20 GS ESERCITO 06:22:29.36 22,59 06:22:14.14
112 CHIARCOSSO SANTE M SGA 8 ASD CHIARCOSSO HELP HAITI 06:29:51.57 22,16 06:29:43.43

CORTO - 107.0 Km

Pos Atleta Sesso Cat PosC Team Tempo Media RTime
128 MONTEBELLI LUCA M VET 30 FALCON´S TEAM 04:12:26.65 25,43 04:12:22.25
127 CALDARI SIMONA F W2 3 FALCON´S TEAM 04:12:26.57 25,43 04:12:21.21
126 RAVAGLI GIOVANNI M GEN 32 RUBICONE CYCLING 04:12:26.07 25,43 04:12:23.23
125 ROSSI ALFIO M GEN 31 TEAM PONTONI 04:12:18.31 25,45 04:11:58.11
124 CARNIELLO LORENZO M SGB 6 MESCHIO 04:12:17.32 25,45 04:11:57.12
123 FALCONI SERENA F W1 4 RUBICONE CYCLING 04:12:16.65 25,45 04:12:13.25
122 BIAGIOTTI LEANDRO M SGA 14 D.L.F. PORDENONE 04:12:11.06 25,46 04:11:56.56
121 CIAN CLAUDIO M GEN 30 ENGINE & BIKE CANESIN 04:08:47.05 25,81 04:08:35.35
120 SITTARO MANUEL M VET 29 GIORNALIERO 04:03:40.36 26,35 04:03:24.24
119 GABASSI PAOLO M JUN 20 CICLI 4R AIELLO 04:03:39.61 26,35 04:03:23.21
118 BUORO GUIDO M SEN 19 MESCHIO 04:02:49.19 26,44 04:02:32.32
117 GHEZZI EZIO M VET 28 BREN TEAM TRENTO 04:02:49.11 26,44 04:02:34.01
116 NODALE MARCO M VET 27 CARNIA BIKE 04:00:08.60 26,74 03:59:55.50
115 PIGNAT CLAUDIO M SGA 13 MESCHIO 04:00:08.59 26,74 03:59:48.29
114 TOMIETTO DARIO M VET 26 MESCHIO 04:00:08.03 26,74 03:59:50.03
113 SPANGHERO LUCIANO M SGA 12 TEAM ISONZO AMATORI ASD 03:58:54.10 26,87 03:58:48.48
112 BARBON CRISTINA F W1 3 BREGANZE MILLENIUM 03:58:48.85 26,88 03:58:45.65
111 DE PERON ALESSANDRO M VET 25 BREGANZE MILLENIUM 03:58:48.78 26,88 03:58:33.58
110 PEZ LORIS M GEN 29 TEAM ISONZO AMATORI ASD 03:58:44.78 26,89 03:58:28.68
109 CAVALLARO NICOLA M SEN 18 D.L.F. PORDENONE 03:58:07.02 26,96 03:57:52.52
108 CATTARIN FRANCO M SGB 5 ASD SC I FALCHI DI TUXON 03:57:58.52 26,98 03:57:46.42
107 BORDIGNON GIORGIO M SGA 11 TEAM ISONZO AMATORI ASD 03:54:49.33 27,34 03:54:43.43
106 VISONA´ MARCO M VET 24 TORRINO TRIATHLON TEAM 03:54:48.83 27,34 03:54:33.43
105 MILLOVAZ FABRIZIO M GEN 28 COTTUR 03:54:47.58 27,34 03:54:30.38
104 FLADERER PETER M SGA 10 ASD GF CARINZIA 03:54:46.76 27,35 03:54:37.26
103 TOMAT ROBERTO M SGB 4 TEAM ISONZO AMATORI ASD 03:54:46.08 27,35 03:54:37.37
102 NATALE GIOVANNI M GEN 27 ASD SC I FALCHI DI TUXON 03:54:45.51 27,35 03:54:35.35
101 BORGO STEFANO M VET 23 HOT WHEELS 03:51:42.07 27,71 03:51:29.29
100 MICHELETTO CHRISTIAN M JUN 19 GC MOGLIANO VENETO 03:49:30.06 27,97 03:49:07.07
99 SCHABYS WOLFGANG M SGA 9 ASD GF CARINZIA 03:48:24.50 28,11 03:48:11.10
98 FRANZIN ETTORE M GEN 26 INDIVIDUALE 03:48:03.18 28,15 03:47:50.50
97 NONNI FRANCO M SGA 8 GIANLUCA FAENZA TEAM 03:48:03.17 28,15 03:47:59.59
96 SAMOGIZIO LINO M SGA 7 GIANLUCA FAENZA TEAM 03:48:02.99 28,15 03:47:58.29
95 COMELLI STEFANO M VET 22 CICLI CUK 03:48:02.30 28,15 03:47:54.54
94 PADOVAN ANDREA M GEN 25 GRUPPO CICLISTICO CICLI CUK 03:48:01.95 28,16 03:47:53.95
93 DALLA LANA REMO M GEN 24 ASD SC I FALCHI DI TUXON 03:48:01.76 28,16 03:47:48.06
92 CATTELAN EDY M SEN 17 TEAM SALVADOR RDZ 03:46:44.99 28,32 03:46:31.19
91 KOZJEK ANTON M SGA 6 SD BAMBI 03:41:34.28 28,98 03:41:19.28
90 VIDALE EFREM M JUN 18 CICLI 4R AIELLO 03:41:17.28 29,01 03:41:01.28
89 MANSERVIGI GIUSEPPE M SEN 16 TEAM BORGHI RACING 03:41:16.73 29,01 03:41:15.53
88 SEGATTO MASSIMO M SEN 15 PRAMAGGIORE 03:39:56.22 29,19 03:39:38.02
87 BAZZO DIEGO M VET 21 D.L.F. PORDENONE 03:39:55.97 29,19 03:39:43.57
86 POLES MAURO M GEN 23 PRAMAGGIORE 03:39:55.85 29,19 03:39:34.65
85 GERVASONI MARIO M GEN 22 ASD RUOTA MEDUNESE 03:39:55.74 29,19 03:39:50.14
84 BORGNA EMILIANO M SEN 14 TEAM UC EZIO BORGNA 03:39:55.72 29,19 03:39:54.32
83 BELTRAME GABRIELE M GEN 21 ASD RUOTA MEDUNESE 03:39:55.71 29,19 03:39:48.31
82 SEGATTO CLAUDIO M SGA 5 D.L.F. PORDENONE 03:39:55.70 29,19 03:39:43.10
81 BONAVERI GIUSEPPE M SGB 3 TEAM CBR CICLI VICINI 03:39:53.72 29,20 03:39:51.51
80 MOSCHEN ROBERTO M SGB 2 VELOCE CLUB BOLZANO 03:39:52.52 29,20 03:39:35.32
79 BEVILACQUA PAOLO M GEN 20 TEAM ISONZO AMATORI ASD 03:38:47.47 29,34 03:38:41.07
78 POLETTO GIORGIO M SEN 13 BPS CYCLING 03:38:12.22 29,42 03:37:56.56
77 COZZARINI LUIGI M GEN 19 AVIS CORDOVADO 03:36:52.26 29,60 03:36:42.16
76 BROI VINCENZO M GEN 18 FUN BIKE CUSSIG BIKE 03:36:52.21 29,60 03:36:43.43
75 RIGHI MAURO M GEN 17 TEAM CBR CICLI VICINI 03:36:51.96 29,61 03:36:49.16
74 GALASSO DANIELE M JUN 17 GIORNALIERO 03:34:13.71 29,97 03:33:57.01
73 SPONCHIA GIOVANNI M SEN 12 CICLI SGNAOLIN 03:33:59.75 30,00 03:33:38.55
72 BOTTEON MORENO M GEN 16 G S SAN VENDEMIANO 03:33:59.50 30,00 03:33:41.10
71 TOPLICA LIC M GEN 15 GRANFONDO CARINZIA 03:33:56.70 30,01 03:33:42.20
70 BON DENIS M SGA 4 CIVIDALESI 03:33:56.00 30,01 03:33:41.41
69 SICILIANO LORENZO M SEN 11 TEAM GRANSON 03:33:55.50 30,01 03:33:47.30
68 IZZO  CIRO M VET 20 ASD SC I FALCHI DI TUXON 03:33:54.25 30,01 03:33:42.42
67 MONTINARO ELIO M SGA 3 ASD SC I FALCHI DI TUXON 03:33:53.75 30,02 03:33:46.55
66 CAMPAGNOLO MARCELLO M JUN 16 ASD FEDERCLUB TRIESTE SCAT 03:32:02.95 30,28 03:31:52.15
65 SILLANI CARLO M SGA 2 GS VARIANESE 03:32:02.45 30,28 03:31:52.52
64 BASSO MICHELE M VET 19 ASD SC I FALCHI DI TUXON 03:32:01.20 30,28 03:31:53.53
63 SUSSAN PAOLO M GEN 14 ASD FEDERCLUB TRIESTE SCAT 03:32:01.19 30,28 03:31:55.55
62 FANT MAURO M VET 18 TEAM SANVIDO 03:31:46.24 30,32 03:31:29.29
61 CALLIGARO MICHELE M SEN 10 ASD CHIARCOSSO HELP HAITI 03:31:35.74 30,34 03:31:27.24
60 MORGUT TULLIO M GEN 13 TEAM ISONZO AMATORI ASD 03:31:34.92 30,35 03:31:29.12
59 MAREGA PAOLO M GEN 12 ASD BIKE&RUN GORIZIA 03:31:34.74 30,35 03:31:32.34
58 AGOSTO LUIGI M VET 17 ASD STALIS TEAM 03:31:34.49 30,35 03:31:24.24
57 TONZAR ALESSANDRO M VET 16 RONCHI CICLISMO 03:30:34.74 30,49 03:30:19.04
56 ANDREON PAOLO M JUN 15 TEAM CINELLI SANTINI 03:28:22.19 30,81 03:28:04.04
55 CERNIGOJ MILAN M GEN 11 SD BAMBI 03:28:15.48 30,83 03:27:59.08
54 EGGER HANNES M GEN 10 ASD GF CARINZIA 03:28:15.47 30,83 03:28:04.04
53 GON ALESSANDRO M VET 15 CICLI SPEZZOTTO DREAM TEAM 03:27:47.69 30,90 03:27:40.40
52 LIVON LUCIANO M SGA 1 TRIVIUM-LEECOUGAN 03:27:47.44 30,90 03:27:30.04
51 SUSSAN DIEGO M GEN 9 ASD FEDERCLUB TRIESTE SCAT 03:27:41.19 30,91 03:27:30.30
50 MARLOT ZIGA M JUN 14 KK TEMPO SIGAS 03:25:52.93 31,19 03:25:42.23
49 BALZAN MIRKO M JUN 13 BETTINI BIKE TEAM 03:25:50.43 31,19 03:25:46.23
48 TEGNER WILLIAM M VET 14 TEAM SALVADOR RDZ 03:25:49.19 31,19 03:25:43.43
47 PREVITERO MARCO M VET 13 LO SPORT DELLE 2 RUOTE 03:25:48.97 31,20 03:25:26.77
46 CHIAROTTO GIOVANNI M GEN 8 CRT CICLOTIME 03:25:48.93 31,20 03:25:32.43
45 BATTISTINI IVANO M VET 12 AS LA TORRE BATMANIA 03:25:47.68 31,20 03:25:45.48
44 ZOCCA LUCIANO M SGB 1 GRANDIS RACING TEAM 03:25:47.67 31,20 03:25:34.17
43 PETRIC ROCK M JUN 12 KK TEMPO SIGAS 03:25:46.43 31,20 03:25:36.03
42 SRNEL MARJAN M GEN 7 BARBARIGA 03:25:45.22 31,20 03:25:38.38
41 HERNAUS MITJA M VET 11 BARBARIGA 03:25:44.97 31,21 03:25:39.77
40 PURINANNI ANDREA M VET 10 ASD FEDERCLUB TRIESTE SCAT 03:21:51.42 31,81 03:21:41.41
39 DEGASPERI STEFANO M GEN 6 FIORDIFRUTTA SMP GECO 03:21:50.42 31,81 03:21:28.28
38 INCRISTI ANTONELLA F W2 2 TEAM KI CO SYS 03:21:43.42 31,83 03:21:41.41
37 FURLAN ENRICA F W1 2 TEAM SALVADOR RDZ 03:19:35.20 32,17 03:19:34.34
36 BERGOZZA MICHELA GIUSEPPINA F W2 1 HOT WHEELS 03:19:35.16 32,17 03:19:33.33
35 FEDRIGO PAOLO M SEN 9 TEAM SALVADOR RDZ 03:19:34.91 32,17 03:19:26.41
34 MENEGUZZO ADELMO M VET 9 HOT WHEELS 03:19:34.90 32,17 03:19:32.70
33 UNTERKÖFLER NORBERT M VET 8 ASD GF CARINZIA 03:19:30.69 32,18 03:19:19.49
32 DORIGONI ROBERTO M GEN 5 ABICI-DAUNEX 03:16:43.90 32,64 03:16:43.90
31 GUBERT MARKUS M VET 7 ASD GF CARINZIA 03:16:43.01 32,64 03:16:31.31
30 SCHABYS DANIEL M JUN 11 ASD GF CARINZIA 03:16:42.68 32,64 03:16:28.28
29 MAZZOLI MARCO M SEN 8 ASD CELLINA BIKE 03:16:42.20 32,64 03:16:32.32
28 MONTAGNER SERGIO M VET 6 TEAM PROFESSIONAL BIKE 03:16:42.18 32,64 03:16:33.33
27 HOSTNIK ANDRAZ M JUN 10 KK TEMPO SIGAS 03:16:42.14 32,64 03:16:32.32
26 ROMA DAMIANO M SEN 7 TEAM PROFESSIONAL BIKE 03:16:42.00 32,64 03:16:33.33
25 MAZZERO NICOLA M SEN 6 SPRINT VIDOR LA VALLATA 03:16:41.94 32,64 03:16:27.24
24 CANESIN DANIELE M GEN 4 ENGINE & BIKE CANESIN 03:16:41.93 32,64 03:16:31.73
23 KALTENBACHER HARALD M VET 5 ASD GF CARINZIA 03:16:41.92 32,64 03:16:30.72
22 NICOLE´ GIANLUCA M SEN 5 GS SELVAZZANO 03:16:41.91 32,64 03:16:30.21
21 GAZZINI SERENA F W1 1 CARRARO TEAM TRENTINO 03:16:06.68 32,74 03:16:05.48
20 ROSSIN DENIS M VET 4 ADRIA BIKE 03:14:18.68 33,04 03:13:57.57
19 GASPARINI MARCO M SEN 4 TEAM PROFESSIONAL BIKE 03:14:18.65 33,04 03:14:09.09
18 RIGHETTO MATTIA M JUN 9 BARBARIGA 03:14:15.18 33,05 03:14:13.13
17 SCHIARATURA DAVIDE M JUN 8 FRECCE ROSSE RIMINI 03:14:13.65 33,06 03:14:13.13
16 LORENZON GIANNI M GEN 3 ASD CHIARCOSSO HELP HAITI 03:11:52.89 33,46 03:11:41.39
15 NADALUTTI MAURIZIO M JUN 7 ASD TEAM GRANZON 03:11:50.67 33,47 03:11:45.45
14 RODA CRISTIAN M SEN 3 TEAM BORGHI RACING 03:11:50.42 33,47 03:11:48.48
13 DAPRETTO GIANPIERO M SEN 2 ASD FEDERCLUB TRIESTE SCAT 03:11:50.41 33,47 03:11:44.44
12 ZAMBOLIN SANDRO M VET 3 ASD CHIARCOSSO HELP HAITI 03:11:49.92 33,47 03:11:42.22
11 KRAVANJA NEJC M JUN 6 KK SOCA KOBARID 03:11:49.63 33,47 03:11:42.23
10 MARTINELLI ANDREA M JUN 5 DE LUCA MAG. VOLTOLINA 03:11:49.42 33,47 03:11:33.02
9 FEICHTER MARKUS M SEN 1 GRAN FONDO CARINZIA 03:11:48.92 33,47 03:11:35.72
8 WARNECKE NIELS M JUN 4 ENGINE & BIKE CANESIN 03:07:07.98 34,31 03:06:56.58
7 DE PONTE MAURIZIO M GEN 2 ASD FEDERCLUB TRIESTE SCAT 03:07:07.40 34,31 03:07:01.40
6 VOLARIC MILKO M VET 2 ASD KK SOCA KOBARID 03:07:07.38 34,31 03:07:01.01
5 MAZZOLI PAOLO M GEN 1 GIANLUCA FAENZA TEAM 03:07:06.98 34,31 03:07:05.78
4 GARZIERA ALESSANDRO M JUN 3 KETEAM 03:07:06.97 34,31 03:06:55.27
3 BIANCHIN ALESSANDRO M JUN 2 PROSECCO CYCLING ASD 03:05:43.37 34,57 03:05:27.27
2 TECCHIO ANDREA M JUN 1 TORPADO FACTORY TEAM 03:05:42.62 34,57 03:05:36.02
1 COSTA FEDERICO M VET 1 BARBARIGA 03:05:41.87 34,57 03:05:36.67
129 ANTONACI FABIO M SEN 20 TEAM PROFESSIONAL BIKE 04:15:20.40 25,14 04:15:01.01
130 VINCENTI CARMINE M SEN 21 TEAM PROFESSIONAL BIKE 04:15:20.41 25,14 04:14:58.58
131 RUGGIERO SAVERIO M VET 31 TEAM PROFESSIONAL BIKE 04:15:20.65 25,14 04:14:58.58
132 COLOMBO GIOVANNA F W2 4 PEDALE COSSATESE 04:15:21.24 25,14 04:15:18.18
133 LICARI GIUSEPPE M GEN 33 PEDALE COSSATESE 04:15:21.25 25,14 04:15:09.15
134 SANTAROSSA MAURIZIO M GEN 34 MESCHIO 04:15:23.57 25,14 04:15:03.03
135 BRAIDA MASSIMILIANO M GEN 35 GIORNALIERO 04:15:29.41 25,13 04:15:10.41
136 GOBBAT GUIDO M GEN 36 PRAMAGGIORE 04:15:37.16 25,12 04:15:19.19
137 NOVELLO BERTILLA F W2 5 HOT WHEELS 04:22:06.68 24,49 04:22:04.08
138 VIRGOLINI LUIGI M SGB 7 UC DA POLDO 04:25:41.60 24,16 04:25:31.10
139 PETENUZZO ANTONIO M GEN 37 PRAMAGGIORE 04:28:23.11 23,92 04:28:03.03
140 PITTON WALTER M SGA 15 TEAM PROFESSIONAL BIKE 04:28:23.96 23,92 04:28:06.56
141 GUERRA LORIS M VET 32 DELLE CASE RENZO 04:29:17.36 23,84 04:28:57.57
142 BRAIDA ROBERTO M GEN 38 GIORNALIERO 04:33:15.62 23,49 04:32:57.62
143 BRUNELLO MARA F W2 6 PRAMAGGIORE 04:33:15.87 23,49 04:32:56.67
144 CAMATTA LUIGI M GEN 39 GIORNALIERO 04:33:39.23 23,46 04:33:21.21
145 PESSOTTO SANDRO M GEN 40 PRAMAGGIORE 04:34:02.73 23,43 04:33:41.33
146 CHIAROT CHIARA F W1 5 GIORNALIERO 04:37:44.74 23,12 04:37:39.04
147 COVALLERO PAOLO M GEN 41 PRAMAGGIORE 04:47:26.03 22,34 04:47:04.04
148 LUPIERI FRANCO M SGA 16 TEAM ISONZO AMATORI ASD 05:03:10.46 21,18 05:03:02.02
149 TOMMASINI FLAVIO GIUSEPPE M GEN 42 CELLINA BIKE 05:04:26.71 21,09 05:04:07.11
150 ZECCHIN GUIDO M VET 33 CELLINA BIKE 05:30:08.44 19,45 05:29:49.49
151 CASSOL ROBERTO M JUN 21 FELTREVELO´ CICLI DALLA ROSA 05:38:53.81 18,94 05:38:36.61
152 TOMASELLA PAOLO M GEN 43 MESCHIO 05:58:02.05 17,93 05:57:39.39